Accueil
METAR-TAF:

METAR-TAF

Aéroports :

Akulivik, Québec, Canada

latitude: 60-49N, longitude: 078-09W, altitude: 20 m

Observation

Le bulletin a été fait il y a 2 heures et 7 minutes, à 21:00 UTC
Vent 21 kt de sud-est
Température 0°C
Humidité 74%
Pression 1016 hPa
Visibilité: 16.1 km
Quelques nuages à une hauteur de 1800 ft
Nuages fragmentés à une hauteur de 25000 ft

METAR: CYKO 192100Z 14021KT 10SM FEW018 BKN250 00/M04 A3000 RMK SC2CI4 SN CVR NIL LAST STFD OBS/NXT 201200UTC SLP164

Heure: 19:07 (23:07 UTC)


TAF: absent

Observations et prévisions météorologiques de plus de 4000 aéroports (messages METAR et TAF).

Les stations disponibles sont représentées par des disques jaunes et rouges sur la carte.

Passer la souris dessus pour voir le nom de la station.

Cliquer dessus pour voir les observations et prévisions météorologiques.

Pour changer de carte: cliquez sur les boutons verts avec une croix noire pour zoomer, sur le bouton vert avec un tiret pour effectuer un zoom arrière, ou sur les flèches vertes pour les cartes adjacentes.


METAR-TAF: